createdAt,value
2018-10-07T00:01:26.307Z,0.00
2018-10-07T00:02:26.366Z,0.00
2018-10-07T00:04:19.365Z,0.00
2018-10-07T00:05:19.417Z,0.00
2018-10-07T00:07:12.407Z,0.00
2018-10-07T00:08:12.467Z,0.00
2018-10-07T00:10:05.463Z,0.00
2018-10-07T00:11:05.513Z,0.00
2018-10-07T00:12:58.501Z,0.00
2018-10-07T00:13:58.567Z,0.00
2018-10-07T00:15:51.559Z,0.00
2018-10-07T00:16:51.780Z,0.00
2018-10-07T00:18:44.599Z,0.00
2018-10-07T00:19:44.660Z,0.00
2018-10-07T00:21:37.661Z,0.00
2018-10-07T00:22:37.714Z,0.00
2018-10-07T00:24:30.723Z,0.00
2018-10-07T00:25:30.763Z,0.00
2018-10-07T00:27:23.759Z,0.00
2018-10-07T00:28:23.823Z,0.00
2018-10-07T00:30:16.817Z,0.00
2018-10-07T00:31:16.873Z,0.00
2018-10-07T00:33:09.864Z,0.00
2018-10-07T00:34:09.922Z,0.00
2018-10-07T00:36:02.918Z,0.00
2018-10-07T00:37:02.977Z,0.00
2018-10-07T00:38:55.968Z,0.00
2018-10-07T00:39:56.021Z,0.00
2018-10-07T00:41:49.019Z,0.00
2018-10-07T00:42:49.074Z,0.00
2018-10-07T00:44:42.089Z,0.00
2018-10-07T00:45:42.193Z,0.00
2018-10-07T00:47:35.145Z,0.00
2018-10-07T00:48:35.197Z,0.00
2018-10-07T00:50:28.192Z,0.00
2018-10-07T00:51:28.248Z,0.00
2018-10-07T00:53:21.243Z,0.00
2018-10-07T00:54:21.305Z,0.00
2018-10-07T00:56:14.301Z,0.00
2018-10-07T00:57:14.355Z,0.00
2018-10-07T00:59:07.349Z,0.00
2018-10-07T01:00:07.406Z,0.00
2018-10-07T01:02:00.403Z,0.00
2018-10-07T01:03:00.457Z,0.00
2018-10-07T01:04:53.444Z,0.00
2018-10-07T01:05:53.507Z,0.00
2018-10-07T01:07:46.501Z,0.00
2018-10-07T01:08:46.553Z,0.00
2018-10-07T01:10:39.542Z,0.00
2018-10-07T01:11:39.602Z,0.00
2018-10-07T01:13:32.602Z,0.00
2018-10-07T01:14:32.656Z,0.00
2018-10-07T01:16:25.658Z,0.00
2018-10-07T01:17:25.714Z,0.00
2018-10-07T01:19:18.709Z,0.00
2018-10-07T01:20:18.768Z,0.00
2018-10-07T01:22:11.765Z,0.00
2018-10-07T01:23:11.817Z,0.00
2018-10-07T01:25:04.808Z,0.00
2018-10-07T01:26:04.867Z,0.00
2018-10-07T01:27:57.866Z,0.00
2018-10-07T01:28:57.920Z,0.00
2018-10-07T01:30:50.907Z,0.00
2018-10-07T01:31:50.968Z,0.00
2018-10-07T01:33:44.474Z,0.00
2018-10-07T01:34:44.529Z,0.00
2018-10-07T01:36:37.529Z,0.00
2018-10-07T01:37:37.587Z,0.00
2018-10-07T01:39:30.581Z,0.00
2018-10-07T01:40:30.635Z,0.00
2018-10-07T01:42:23.629Z,0.00
2018-10-07T01:43:23.682Z,0.00
2018-10-07T01:45:16.735Z,0.00
2018-10-07T01:46:16.797Z,0.00
2018-10-07T01:48:09.794Z,0.00
2018-10-07T01:49:09.844Z,0.00
2018-10-07T01:51:02.835Z,0.00
2018-10-07T01:52:02.897Z,0.00
2018-10-07T01:53:55.893Z,0.00
2018-10-07T01:54:55.945Z,0.00
2018-10-07T01:56:48.934Z,0.00
2018-10-07T01:57:48.995Z,0.00
2018-10-07T01:59:41.984Z,0.00
2018-10-07T02:00:42.040Z,0.00
2018-10-07T02:02:35.037Z,0.00
2018-10-07T02:03:35.094Z,0.00
2018-10-07T02:05:28.080Z,0.00
2018-10-07T02:06:28.142Z,0.00
2018-10-07T02:08:21.233Z,0.00
2018-10-07T02:09:21.208Z,0.00
2018-10-07T02:11:14.189Z,0.00
2018-10-07T02:12:14.250Z,0.00
2018-10-07T02:14:07.246Z,0.00
2018-10-07T02:15:07.305Z,0.00
2018-10-07T02:17:00.282Z,0.00
2018-10-07T02:18:00.343Z,0.00
2018-10-07T02:19:53.339Z,0.00
2018-10-07T02:20:53.389Z,0.00
2018-10-07T02:22:46.377Z,0.00
2018-10-07T02:23:46.440Z,0.00
2018-10-07T02:25:39.433Z,0.00
2018-10-07T02:26:39.485Z,0.00
2018-10-07T02:28:32.489Z,0.00
2018-10-07T02:29:32.551Z,0.00
2018-10-07T02:31:25.539Z,0.00
2018-10-07T02:32:25.598Z,0.00
2018-10-07T02:34:20.101Z,0.00
2018-10-07T02:35:20.157Z,0.00
2018-10-07T02:37:13.147Z,0.00
2018-10-07T02:38:13.210Z,0.00
2018-10-07T02:40:06.208Z,0.00
2018-10-07T02:41:06.264Z,0.00
2018-10-07T02:42:59.253Z,0.00
2018-10-07T02:43:59.315Z,0.00
2018-10-07T02:45:52.308Z,0.00
2018-10-07T02:46:52.362Z,0.00
2018-10-07T02:48:45.348Z,0.00
2018-10-07T02:49:45.407Z,0.00
2018-10-07T02:51:38.401Z,0.00
2018-10-07T02:52:38.454Z,0.00
2018-10-07T02:54:31.444Z,0.00
2018-10-07T02:55:31.499Z,0.00
2018-10-07T02:57:24.492Z,0.00
2018-10-07T02:58:24.552Z,0.00
2018-10-07T03:00:17.591Z,0.00
2018-10-07T03:01:17.598Z,0.00
2018-10-07T03:03:10.588Z,0.00
2018-10-07T03:04:10.649Z,0.00
2018-10-07T03:06:03.646Z,0.00
2018-10-07T03:07:03.698Z,0.00
2018-10-07T03:08:56.685Z,0.00
2018-10-07T03:09:56.743Z,0.00
2018-10-07T03:11:49.745Z,0.00
2018-10-07T03:12:49.793Z,0.00
2018-10-07T03:14:42.803Z,0.00
2018-10-07T03:15:42.841Z,0.00
2018-10-07T03:17:35.830Z,0.00
2018-10-07T03:18:35.892Z,0.00
2018-10-07T03:20:28.887Z,0.00
2018-10-07T03:21:29.184Z,0.00
2018-10-07T03:23:21.924Z,0.00
2018-10-07T03:24:21.986Z,0.00
2018-10-07T03:26:14.979Z,0.00
2018-10-07T03:27:15.030Z,0.00
2018-10-07T03:29:08.024Z,0.00
2018-10-07T03:30:08.083Z,0.00
2018-10-07T03:32:01.078Z,0.00
2018-10-07T03:33:01.130Z,0.00
2018-10-07T03:34:54.124Z,0.00
2018-10-07T03:35:54.180Z,0.00
2018-10-07T03:37:47.180Z,0.00
2018-10-07T03:38:47.225Z,0.00
2018-10-07T03:40:40.219Z,0.00
2018-10-07T03:41:40.273Z,0.00
2018-10-07T03:43:33.269Z,0.00
2018-10-07T03:44:33.321Z,0.00
2018-10-07T03:46:26.312Z,0.00
2018-10-07T03:47:26.365Z,0.00
2018-10-07T03:49:19.351Z,0.00
2018-10-07T03:50:19.409Z,0.00
2018-10-07T03:52:12.412Z,0.00
2018-10-07T03:53:12.462Z,0.00
2018-10-07T03:55:05.447Z,0.00
2018-10-07T03:56:05.510Z,0.00
2018-10-07T03:57:58.502Z,0.00
2018-10-07T03:58:58.554Z,0.00
2018-10-07T04:00:51.539Z,0.00
2018-10-07T04:01:51.596Z,0.00
2018-10-07T04:03:44.590Z,0.00
2018-10-07T04:04:44.642Z,0.00
2018-10-07T04:06:37.634Z,0.00
2018-10-07T04:07:37.686Z,0.00
2018-10-07T04:09:30.679Z,0.00
2018-10-07T04:10:30.739Z,0.00
2018-10-07T04:12:23.733Z,0.00
2018-10-07T04:13:23.782Z,0.00
2018-10-07T04:15:16.772Z,0.00
2018-10-07T04:16:16.830Z,0.00
2018-10-07T04:18:09.825Z,0.00
2018-10-07T04:19:09.878Z,0.00
2018-10-07T04:21:02.860Z,0.00
2018-10-07T04:22:02.920Z,0.00
2018-10-07T04:23:55.913Z,0.00
2018-10-07T04:24:55.964Z,0.00
2018-10-07T04:26:48.944Z,0.00
2018-10-07T04:27:49.009Z,0.00
2018-10-07T04:29:42.003Z,0.00
2018-10-07T04:30:42.049Z,0.00
2018-10-07T04:32:35.044Z,0.00
2018-10-07T04:33:35.095Z,0.00
2018-10-07T04:35:28.084Z,0.00
2018-10-07T04:36:28.146Z,0.00
2018-10-07T04:38:21.139Z,0.00
2018-10-07T04:39:21.199Z,0.00
2018-10-07T04:41:14.176Z,0.00
2018-10-07T04:42:14.236Z,0.00
2018-10-07T04:44:07.236Z,0.00
2018-10-07T04:45:07.292Z,0.00
2018-10-07T04:47:00.275Z,0.00
2018-10-07T04:48:00.332Z,0.00
2018-10-07T04:49:53.325Z,0.00
2018-10-07T04:50:53.377Z,0.00
2018-10-07T04:52:46.359Z,0.00
2018-10-07T04:53:46.421Z,0.00
2018-10-07T04:55:39.925Z,0.00
2018-10-07T04:56:40.000Z,0.00
2018-10-07T04:58:32.964Z,0.00
2018-10-07T04:59:33.014Z,0.00
2018-10-07T05:01:25.998Z,0.00
2018-10-07T05:02:26.057Z,0.00
2018-10-07T05:04:19.052Z,0.00
2018-10-07T05:05:19.107Z,0.00
2018-10-07T05:07:12.099Z,0.00
2018-10-07T05:08:12.159Z,0.00
2018-10-07T05:10:05.149Z,0.00
2018-10-07T05:11:05.205Z,0.00
2018-10-07T05:12:58.198Z,0.00
2018-10-07T05:13:58.256Z,0.00
2018-10-07T05:15:51.274Z,0.00
2018-10-07T05:16:51.301Z,0.00
2018-10-07T05:18:44.294Z,0.00
2018-10-07T05:19:44.341Z,0.00
2018-10-07T05:21:37.336Z,0.00
2018-10-07T05:22:37.393Z,0.00
2018-10-07T05:24:30.385Z,0.00
2018-10-07T05:25:30.438Z,0.00
2018-10-07T05:27:23.441Z,0.00
2018-10-07T05:28:23.501Z,0.00
2018-10-07T05:30:16.486Z,0.00
2018-10-07T05:31:16.546Z,0.00
2018-10-07T05:33:09.539Z,5.63
2018-10-07T05:34:09.584Z,5.63
2018-10-07T05:36:02.573Z,5.63
2018-10-07T05:37:02.628Z,5.63
2018-10-07T05:38:55.611Z,11.25
2018-10-07T05:39:55.671Z,11.25
2018-10-07T05:41:48.669Z,11.25
2018-10-07T05:42:48.718Z,11.25
2018-10-07T05:44:41.727Z,16.88
2018-10-07T05:45:41.760Z,16.88
2018-10-07T05:47:34.739Z,16.88
2018-10-07T05:48:34.797Z,22.50
2018-10-07T05:50:27.846Z,22.50
2018-10-07T05:51:27.848Z,22.50
2018-10-07T05:53:20.828Z,28.13
2018-10-07T05:54:20.896Z,33.75
2018-10-07T05:56:14.398Z,39.38
2018-10-07T05:57:14.452Z,39.38
2018-10-07T05:59:07.444Z,45.00
2018-10-07T06:00:07.505Z,50.63
2018-10-07T06:02:00.561Z,56.25
2018-10-07T06:03:00.554Z,56.25
2018-10-07T06:04:53.539Z,61.88
2018-10-07T06:05:53.594Z,67.50
2018-10-07T06:07:46.586Z,78.75
2018-10-07T06:08:46.636Z,84.38
2018-10-07T06:10:39.641Z,95.63
2018-10-07T06:11:39.736Z,101.25
2018-10-07T06:13:32.664Z,112.50
2018-10-07T06:14:32.724Z,118.13
2018-10-07T06:16:25.722Z,123.75
2018-10-07T06:17:25.776Z,123.75
2018-10-07T06:19:18.760Z,118.13
2018-10-07T06:20:18.822Z,118.13
2018-10-07T06:22:11.821Z,101.25
2018-10-07T06:23:11.874Z,95.63
2018-10-07T06:25:04.862Z,90.00
2018-10-07T06:26:04.921Z,90.00
2018-10-07T06:27:57.921Z,90.00
2018-10-07T06:28:57.976Z,90.00
2018-10-07T06:30:50.960Z,84.38
2018-10-07T06:31:51.018Z,84.38
2018-10-07T06:33:44.006Z,90.00
2018-10-07T06:34:44.060Z,90.00
2018-10-07T06:36:37.052Z,101.25
2018-10-07T06:37:37.105Z,101.25
2018-10-07T06:39:30.087Z,112.50
2018-10-07T06:40:30.143Z,118.13
2018-10-07T06:42:23.138Z,123.75
2018-10-07T06:43:23.197Z,129.38
2018-10-07T06:45:16.205Z,123.75
2018-10-07T06:46:16.233Z,118.13
2018-10-07T06:48:09.229Z,118.13
2018-10-07T06:49:09.286Z,118.13
2018-10-07T06:51:02.268Z,112.50
2018-10-07T06:52:02.327Z,112.50
2018-10-07T06:53:55.319Z,118.13
2018-10-07T06:54:55.369Z,112.50
2018-10-07T06:56:48.365Z,118.13
2018-10-07T06:57:48.421Z,129.38
2018-10-07T06:59:41.438Z,135.00
2018-10-07T07:00:41.461Z,135.00
2018-10-07T07:02:34.459Z,135.00
2018-10-07T07:03:34.511Z,135.00
2018-10-07T07:05:27.493Z,140.63
2018-10-07T07:06:27.574Z,140.63
2018-10-07T07:08:20.546Z,146.25
2018-10-07T07:09:20.596Z,151.88
2018-10-07T07:11:13.579Z,168.75
2018-10-07T07:12:13.645Z,180.00
2018-10-07T07:14:06.636Z,191.25
2018-10-07T07:15:06.690Z,196.88
2018-10-07T07:16:59.672Z,191.25
2018-10-07T07:17:59.731Z,202.50
2018-10-07T07:19:52.759Z,196.88
2018-10-07T07:20:52.774Z,191.25
2018-10-07T07:22:45.758Z,185.63
2018-10-07T07:23:45.818Z,191.25
2018-10-07T07:25:38.810Z,208.13
2018-10-07T07:26:38.860Z,225.00
2018-10-07T07:28:31.856Z,247.50
2018-10-07T07:29:31.909Z,264.38
2018-10-07T07:31:24.941Z,309.38
2018-10-07T07:32:24.951Z,466.88
2018-10-07T07:34:18.021Z,540.00
2018-10-07T07:35:17.994Z,281.25
2018-10-07T07:37:10.988Z,286.88
2018-10-07T07:38:11.044Z,298.13
2018-10-07T07:40:04.042Z,331.88
2018-10-07T07:41:04.088Z,298.13
2018-10-07T07:42:57.074Z,399.38
2018-10-07T07:43:57.133Z,298.13
2018-10-07T07:45:50.125Z,703.13
2018-10-07T07:46:50.192Z,680.63
2018-10-07T07:48:43.169Z,691.88
2018-10-07T07:49:43.222Z,691.88
2018-10-07T07:51:36.219Z,714.38
2018-10-07T07:52:36.271Z,725.63
2018-10-07T07:54:29.264Z,742.50
2018-10-07T07:55:29.324Z,742.50
2018-10-07T07:57:22.308Z,742.50
2018-10-07T07:58:22.371Z,748.13
2018-10-07T08:00:15.366Z,759.38
2018-10-07T08:01:15.424Z,765.00
2018-10-07T08:03:08.414Z,973.13
2018-10-07T08:04:08.479Z,1248.75
2018-10-07T08:06:01.475Z,1648.13
2018-10-07T08:07:01.530Z,1653.75
2018-10-07T08:08:54.601Z,1524.38
2018-10-07T08:09:54.585Z,1524.38
2018-10-07T08:11:47.583Z,1569.38
2018-10-07T08:12:47.638Z,1608.75
2018-10-07T08:14:40.646Z,1586.25
2018-10-07T08:15:40.696Z,1642.50
2018-10-07T08:17:33.792Z,1625.63
2018-10-07T08:18:33.757Z,1698.75
2018-10-07T08:20:26.755Z,1845.00
2018-10-07T08:21:26.810Z,1873.13
2018-10-07T08:23:19.834Z,1861.88
2018-10-07T08:24:19.870Z,1828.13
2018-10-07T08:26:12.869Z,1766.25
2018-10-07T08:27:12.924Z,1800.00
2018-10-07T08:29:05.919Z,1755.00
2018-10-07T08:30:05.985Z,1777.50
2018-10-07T08:31:58.983Z,1726.88
2018-10-07T08:32:59.040Z,1721.25
2018-10-07T08:34:52.040Z,1698.75
2018-10-07T08:35:52.105Z,1665.00
2018-10-07T08:37:45.104Z,1428.75
2018-10-07T08:38:45.168Z,826.88
2018-10-07T08:40:38.164Z,281.25
2018-10-07T08:41:38.225Z,264.38
2018-10-07T08:43:31.222Z,258.75
2018-10-07T08:44:31.286Z,258.75
2018-10-07T08:46:24.295Z,253.13
2018-10-07T08:47:24.352Z,253.13
2018-10-07T08:49:17.351Z,253.13
2018-10-07T08:50:17.411Z,253.13
2018-10-07T08:52:10.417Z,247.50
2018-10-07T08:53:10.476Z,247.50
2018-10-07T08:55:03.476Z,247.50
2018-10-07T08:56:03.601Z,247.50
2018-10-07T08:57:56.530Z,241.88
2018-10-07T08:58:56.589Z,241.88
2018-10-07T09:00:49.599Z,241.88
2018-10-07T09:01:49.648Z,241.88
2018-10-07T09:03:42.652Z,236.25
2018-10-07T09:04:42.725Z,236.25
2018-10-07T09:06:35.803Z,236.25
2018-10-07T09:07:35.786Z,230.63
2018-10-07T09:09:28.794Z,230.63
2018-10-07T09:10:28.828Z,230.63
2018-10-07T09:12:21.865Z,225.00
2018-10-07T09:13:21.903Z,225.00
2018-10-07T09:15:14.894Z,225.00
2018-10-07T09:16:14.932Z,225.00
2018-10-07T09:18:07.982Z,219.38
2018-10-07T09:19:07.995Z,219.38
2018-10-07T09:21:00.997Z,219.38
2018-10-07T09:22:01.052Z,219.38
2018-10-07T09:23:54.551Z,219.38
2018-10-07T09:24:54.622Z,219.38
2018-10-07T09:26:47.688Z,213.75
2018-10-07T09:27:47.654Z,213.75
2018-10-07T09:29:40.641Z,213.75
2018-10-07T09:30:40.704Z,213.75
2018-10-07T09:32:33.768Z,213.75
2018-10-07T09:33:33.751Z,213.75
2018-10-07T09:35:26.746Z,213.75
2018-10-07T09:36:26.808Z,213.75
2018-10-07T09:38:19.816Z,213.75
2018-10-07T09:39:19.960Z,213.75
2018-10-07T09:41:12.862Z,213.75
2018-10-07T09:42:12.924Z,213.75
2018-10-07T09:44:05.931Z,213.75
2018-10-07T09:45:05.985Z,213.75
2018-10-07T09:46:58.986Z,213.75
2018-10-07T09:47:59.032Z,213.75
2018-10-07T09:49:52.030Z,213.75
2018-10-07T09:50:52.079Z,213.75
2018-10-07T09:52:45.079Z,213.75
2018-10-07T09:53:45.126Z,213.75
2018-10-07T09:55:38.111Z,213.75
2018-10-07T09:56:38.173Z,213.75
2018-10-07T09:58:31.166Z,213.75
2018-10-07T09:59:31.221Z,213.75
2018-10-07T10:01:24.237Z,213.75
2018-10-07T10:02:24.265Z,213.75
2018-10-07T10:04:17.388Z,213.75
2018-10-07T10:05:17.323Z,213.75
2018-10-07T10:07:10.357Z,213.75
2018-10-07T10:08:10.366Z,213.75
2018-10-07T10:10:03.358Z,213.75
2018-10-07T10:11:03.487Z,213.75
2018-10-07T10:12:56.412Z,213.75
2018-10-07T10:13:56.470Z,213.75
2018-10-07T10:15:49.462Z,213.75
2018-10-07T10:16:49.511Z,213.75
2018-10-07T10:18:42.509Z,213.75
2018-10-07T10:19:42.626Z,213.75
2018-10-07T10:21:35.552Z,213.75
2018-10-07T10:22:35.609Z,213.75
2018-10-07T10:24:29.108Z,213.75
2018-10-07T10:25:29.164Z,213.75
2018-10-07T10:27:22.156Z,213.75
2018-10-07T10:28:22.219Z,213.75
2018-10-07T10:30:15.215Z,219.38
2018-10-07T10:31:15.269Z,213.75
2018-10-07T10:33:08.295Z,213.75
2018-10-07T10:34:08.433Z,213.75
2018-10-07T10:36:01.532Z,213.75
2018-10-07T10:37:01.588Z,213.75
2018-10-07T10:38:54.583Z,225.00
2018-10-07T10:39:54.672Z,247.50
2018-10-07T10:41:47.640Z,331.88
2018-10-07T10:42:47.703Z,298.13
2018-10-07T10:44:40.698Z,286.88
2018-10-07T10:45:40.748Z,298.13
2018-10-07T10:47:33.870Z,241.88
2018-10-07T10:48:33.797Z,253.13
2018-10-07T10:50:26.786Z,253.13
2018-10-07T10:51:26.841Z,281.25
2018-10-07T10:53:19.829Z,241.88
2018-10-07T10:54:19.903Z,236.25
2018-10-07T10:56:12.893Z,264.38
2018-10-07T10:57:12.975Z,264.38
2018-10-07T10:59:05.926Z,208.13
2018-10-07T11:00:06.036Z,230.63
2018-10-07T11:01:59.567Z,225.00
2018-10-07T11:02:59.061Z,225.00
2018-10-07T11:04:52.053Z,225.00
2018-10-07T11:05:52.110Z,230.63
2018-10-07T11:07:45.142Z,230.63
2018-10-07T11:08:45.201Z,225.00
2018-10-07T11:10:38.313Z,225.00
2018-10-07T11:11:38.245Z,225.00
2018-10-07T11:13:31.244Z,219.38
2018-10-07T11:14:31.304Z,219.38
2018-10-07T11:16:24.306Z,219.38
2018-10-07T11:17:24.354Z,219.38
2018-10-07T11:19:17.394Z,225.00
2018-10-07T11:20:17.399Z,219.38
2018-10-07T11:22:10.393Z,219.38
2018-10-07T11:23:10.444Z,219.38
2018-10-07T11:25:03.448Z,213.75
2018-10-07T11:26:03.508Z,213.75
2018-10-07T11:27:56.484Z,213.75
2018-10-07T11:28:56.546Z,213.75
2018-10-07T11:30:49.541Z,219.38
2018-10-07T11:31:49.598Z,191.25
2018-10-07T11:33:42.589Z,213.75
2018-10-07T11:34:42.697Z,219.38
2018-10-07T11:36:35.643Z,208.13
2018-10-07T11:37:35.703Z,208.13
2018-10-07T11:39:28.686Z,208.13
2018-10-07T11:40:28.742Z,208.13
2018-10-07T11:42:21.741Z,208.13
2018-10-07T11:43:21.793Z,208.13
2018-10-07T11:45:14.777Z,208.13
2018-10-07T11:46:14.839Z,208.13
2018-10-07T11:48:07.833Z,208.13
2018-10-07T11:49:07.892Z,208.13
2018-10-07T11:51:00.891Z,208.13
2018-10-07T11:52:00.945Z,208.13
2018-10-07T11:53:53.945Z,202.50
2018-10-07T11:54:54.007Z,202.50
2018-10-07T11:56:47.007Z,202.50
2018-10-07T11:57:47.062Z,202.50
2018-10-07T11:59:40.057Z,202.50
2018-10-07T12:00:40.118Z,202.50
2018-10-07T12:02:33.166Z,202.50
2018-10-07T12:03:33.191Z,202.50
2018-10-07T12:05:26.154Z,202.50
2018-10-07T12:06:26.213Z,202.50
2018-10-07T12:08:19.207Z,202.50
2018-10-07T12:09:19.261Z,202.50
2018-10-07T12:11:12.248Z,202.50
2018-10-07T12:12:12.309Z,202.50
2018-10-07T12:14:05.306Z,202.50
2018-10-07T12:15:05.357Z,202.50
2018-10-07T12:16:58.366Z,196.88
2018-10-07T12:17:58.412Z,196.88
2018-10-07T12:19:51.407Z,196.88
2018-10-07T12:20:51.461Z,196.88
2018-10-07T12:22:44.456Z,196.88
2018-10-07T12:23:44.510Z,196.88
2018-10-07T12:25:37.504Z,196.88
2018-10-07T12:26:37.561Z,196.88
2018-10-07T12:28:30.562Z,196.88
2018-10-07T12:29:30.614Z,196.88
2018-10-07T12:31:23.605Z,196.88
2018-10-07T12:32:23.666Z,196.88
2018-10-07T12:34:16.661Z,196.88
2018-10-07T12:35:16.716Z,196.88
2018-10-07T12:37:09.703Z,196.88
2018-10-07T12:38:09.765Z,196.88
2018-10-07T12:40:02.764Z,196.88
2018-10-07T12:41:02.811Z,196.88
2018-10-07T12:42:55.810Z,196.88
2018-10-07T12:43:55.861Z,196.88
2018-10-07T12:45:48.859Z,196.88
2018-10-07T12:46:48.915Z,196.88
2018-10-07T12:48:41.911Z,202.50
2018-10-07T12:49:41.966Z,202.50
2018-10-07T12:51:34.950Z,202.50
2018-10-07T12:52:35.015Z,208.13
2018-10-07T12:54:28.026Z,208.13
2018-10-07T12:55:28.065Z,213.75
2018-10-07T12:57:21.049Z,219.38
2018-10-07T12:58:21.110Z,219.38
2018-10-07T13:00:14.100Z,225.00
2018-10-07T13:01:14.157Z,236.25
2018-10-07T13:03:07.148Z,247.50
2018-10-07T13:04:07.204Z,247.50
2018-10-07T13:06:00.193Z,241.88
2018-10-07T13:07:00.255Z,236.25
2018-10-07T13:08:53.247Z,247.50
2018-10-07T13:09:53.300Z,253.13
2018-10-07T13:11:46.311Z,258.75
2018-10-07T13:12:46.352Z,270.00
2018-10-07T13:14:39.858Z,275.63
2018-10-07T13:15:39.908Z,275.63
2018-10-07T13:17:32.903Z,298.13
2018-10-07T13:18:32.959Z,298.13
2018-10-07T13:20:25.954Z,298.13
2018-10-07T13:21:26.015Z,298.13
2018-10-07T13:23:19.005Z,298.13
2018-10-07T13:24:19.067Z,292.50
2018-10-07T13:26:12.061Z,298.13
2018-10-07T13:27:12.115Z,298.13
2018-10-07T13:29:05.112Z,303.75
2018-10-07T13:30:05.166Z,303.75
2018-10-07T13:31:58.161Z,298.13
2018-10-07T13:32:58.216Z,298.13
2018-10-07T13:34:51.225Z,298.13
2018-10-07T13:35:51.281Z,298.13
2018-10-07T13:37:44.273Z,298.13
2018-10-07T13:38:44.335Z,303.75
2018-10-07T13:40:37.329Z,315.00
2018-10-07T13:41:37.386Z,315.00
2018-10-07T13:43:30.383Z,320.63
2018-10-07T13:44:30.443Z,315.00
2018-10-07T13:46:23.439Z,315.00
2018-10-07T13:47:23.490Z,315.00
2018-10-07T13:49:16.479Z,309.38
2018-10-07T13:50:16.539Z,309.38
2018-10-07T13:52:09.536Z,309.38
2018-10-07T13:53:09.610Z,320.63
2018-10-07T13:55:02.587Z,331.88
2018-10-07T13:56:02.641Z,354.38
2018-10-07T13:57:55.633Z,371.25
2018-10-07T13:58:55.690Z,416.25
2018-10-07T14:00:48.688Z,489.38
2018-10-07T14:01:48.743Z,517.50
2018-10-07T14:03:41.741Z,551.25
2018-10-07T14:04:41.800Z,534.38
2018-10-07T14:06:34.808Z,607.50
2018-10-07T14:07:34.866Z,652.50
2018-10-07T14:09:27.861Z,838.13
2018-10-07T14:10:27.920Z,928.13
2018-10-07T14:12:20.921Z,585.00
2018-10-07T14:13:20.977Z,365.63
2018-10-07T14:15:14.480Z,264.38
2018-10-07T14:16:14.538Z,258.75
2018-10-07T14:18:07.535Z,247.50
2018-10-07T14:19:07.590Z,241.88
2018-10-07T14:21:00.586Z,241.88
2018-10-07T14:22:00.640Z,230.63
2018-10-07T14:23:53.676Z,247.50
2018-10-07T14:24:53.696Z,247.50
2018-10-07T14:26:46.701Z,253.13
2018-10-07T14:27:46.756Z,247.50
2018-10-07T14:29:39.746Z,236.25
2018-10-07T14:30:39.817Z,230.63
2018-10-07T14:32:32.812Z,230.63
2018-10-07T14:33:32.868Z,230.63
2018-10-07T14:35:25.865Z,236.25
2018-10-07T14:36:25.934Z,241.88
2018-10-07T14:38:18.930Z,241.88
2018-10-07T14:39:18.987Z,241.88
2018-10-07T14:41:11.987Z,236.25
2018-10-07T14:42:12.036Z,236.25
2018-10-07T14:44:05.025Z,236.25
2018-10-07T14:45:05.090Z,241.88
2018-10-07T14:46:58.089Z,236.25
2018-10-07T14:47:58.144Z,241.88
2018-10-07T14:49:51.133Z,241.88
2018-10-07T14:50:51.196Z,236.25
2018-10-07T14:52:44.196Z,241.88
2018-10-07T14:53:44.255Z,241.88
2018-10-07T14:55:37.242Z,236.25
2018-10-07T14:56:37.304Z,230.63
2018-10-07T14:58:30.298Z,225.00
2018-10-07T14:59:30.355Z,225.00
2018-10-07T15:01:23.349Z,202.50
2018-10-07T15:02:23.408Z,202.50
2018-10-07T15:04:16.404Z,185.63
2018-10-07T15:05:16.461Z,180.00
2018-10-07T15:07:09.465Z,168.75
2018-10-07T15:08:09.510Z,163.13
2018-10-07T15:10:02.528Z,151.88
2018-10-07T15:11:02.570Z,146.25
2018-10-07T15:12:55.567Z,140.63
2018-10-07T15:13:55.625Z,140.63
2018-10-07T15:15:48.613Z,135.00
2018-10-07T15:16:48.677Z,135.00
2018-10-07T15:18:41.671Z,135.00
2018-10-07T15:19:41.724Z,135.00
2018-10-07T15:21:34.713Z,129.38
2018-10-07T15:22:34.774Z,129.38
2018-10-07T15:24:27.775Z,129.38
2018-10-07T15:25:27.832Z,123.75
2018-10-07T15:27:20.827Z,123.75
2018-10-07T15:28:20.886Z,129.38
2018-10-07T15:30:13.883Z,129.38
2018-10-07T15:31:13.935Z,129.38
2018-10-07T15:33:06.929Z,129.38
2018-10-07T15:34:06.981Z,129.38
2018-10-07T15:35:59.966Z,129.38
2018-10-07T15:37:00.026Z,129.38
2018-10-07T15:38:53.028Z,123.75
2018-10-07T15:39:53.082Z,123.75
2018-10-07T15:41:46.071Z,123.75
2018-10-07T15:42:46.137Z,118.13
2018-10-07T15:44:39.126Z,118.13
2018-10-07T15:45:39.182Z,118.13
2018-10-07T15:47:32.173Z,112.50
2018-10-07T15:48:32.228Z,112.50
2018-10-07T15:50:25.224Z,106.88
2018-10-07T15:51:25.279Z,106.88
2018-10-07T15:53:18.266Z,106.88
2018-10-07T15:54:18.327Z,106.88
2018-10-07T15:56:11.318Z,101.25
2018-10-07T15:57:11.373Z,101.25
2018-10-07T15:59:04.374Z,95.63
2018-10-07T16:00:04.420Z,95.63
2018-10-07T16:01:57.405Z,90.00
2018-10-07T16:02:57.467Z,84.38
2018-10-07T16:04:50.463Z,84.38
2018-10-07T16:05:50.519Z,84.38
2018-10-07T16:07:43.503Z,78.75
2018-10-07T16:08:43.628Z,78.75
2018-10-07T16:10:36.559Z,73.13
2018-10-07T16:11:36.614Z,73.13
2018-10-07T16:13:29.608Z,67.50
2018-10-07T16:14:29.674Z,67.50
2018-10-07T16:16:22.678Z,61.88
2018-10-07T16:17:22.725Z,61.88
2018-10-07T16:19:15.731Z,56.25
2018-10-07T16:20:15.781Z,56.25
2018-10-07T16:22:08.779Z,50.63
2018-10-07T16:23:08.835Z,50.63
2018-10-07T16:25:01.841Z,50.63
2018-10-07T16:26:01.927Z,45.00
2018-10-07T16:27:54.881Z,45.00
2018-10-07T16:28:54.944Z,39.38
2018-10-07T16:30:47.937Z,39.38
2018-10-07T16:31:47.994Z,39.38
2018-10-07T16:33:41.025Z,33.75
2018-10-07T16:34:41.046Z,33.75
2018-10-07T16:36:34.034Z,28.13
2018-10-07T16:37:34.087Z,28.13
2018-10-07T16:39:27.077Z,22.50
2018-10-07T16:40:27.139Z,22.50
2018-10-07T16:42:20.134Z,22.50
2018-10-07T16:43:20.187Z,16.88
2018-10-07T16:45:13.222Z,16.88
2018-10-07T16:46:13.231Z,16.88
2018-10-07T16:48:06.224Z,11.25
2018-10-07T16:49:06.272Z,11.25
2018-10-07T16:50:59.275Z,11.25
2018-10-07T16:51:59.324Z,5.63
2018-10-07T16:53:52.309Z,5.63
2018-10-07T16:54:52.372Z,5.63
2018-10-07T16:56:45.367Z,5.63
2018-10-07T16:57:45.415Z,5.63
2018-10-07T16:59:38.403Z,0.00
2018-10-07T17:00:38.468Z,0.00
2018-10-07T17:02:31.457Z,0.00
2018-10-07T17:03:31.515Z,0.00
2018-10-07T17:05:24.498Z,0.00
2018-10-07T17:06:24.562Z,0.00
2018-10-07T17:08:17.553Z,0.00
2018-10-07T17:09:17.605Z,0.00
2018-10-07T17:11:10.589Z,0.00
2018-10-07T17:12:10.649Z,0.00
2018-10-07T17:14:03.643Z,0.00
2018-10-07T17:15:03.699Z,0.00
2018-10-07T17:16:56.692Z,0.00
2018-10-07T17:17:56.741Z,0.00
2018-10-07T17:19:49.731Z,0.00
2018-10-07T17:20:49.833Z,0.00
2018-10-07T17:22:42.785Z,0.00
2018-10-07T17:23:42.841Z,0.00
2018-10-07T17:25:35.828Z,0.00
2018-10-07T17:26:35.889Z,0.00
2018-10-07T17:28:28.883Z,0.00
2018-10-07T17:29:28.935Z,0.00
2018-10-07T17:31:21.923Z,0.00
2018-10-07T17:32:21.980Z,0.00
2018-10-07T17:34:14.977Z,0.00
2018-10-07T17:35:15.058Z,0.00
2018-10-07T17:37:08.018Z,0.00
2018-10-07T17:38:08.115Z,0.00
2018-10-07T17:40:01.072Z,0.00
2018-10-07T17:41:01.124Z,0.00
2018-10-07T17:42:54.139Z,0.00
2018-10-07T17:43:54.177Z,0.00
2018-10-07T17:45:47.163Z,0.00
2018-10-07T17:46:47.222Z,0.00
2018-10-07T17:48:40.287Z,0.00
2018-10-07T17:49:40.269Z,0.00
2018-10-07T17:51:33.259Z,0.00
2018-10-07T17:52:33.310Z,0.00
2018-10-07T17:54:26.306Z,0.00
2018-10-07T17:55:26.360Z,0.00
2018-10-07T17:57:19.347Z,0.00
2018-10-07T17:58:19.410Z,0.00
2018-10-07T18:00:12.401Z,0.00
2018-10-07T18:01:12.452Z,0.00
2018-10-07T18:03:05.442Z,0.00
2018-10-07T18:04:05.500Z,0.00
2018-10-07T18:05:58.494Z,0.00
2018-10-07T18:06:58.549Z,0.00
2018-10-07T18:08:51.546Z,0.00
2018-10-07T18:09:51.599Z,0.00
2018-10-07T18:11:44.579Z,0.00
2018-10-07T18:12:44.639Z,0.00
2018-10-07T18:14:39.129Z,0.00
2018-10-07T18:15:39.183Z,0.00
2018-10-07T18:17:32.168Z,0.00
2018-10-07T18:18:32.228Z,0.00
2018-10-07T18:20:25.220Z,0.00
2018-10-07T18:21:25.276Z,0.00
2018-10-07T18:23:18.255Z,0.00
2018-10-07T18:24:18.315Z,0.00
2018-10-07T18:26:11.307Z,0.00
2018-10-07T18:27:11.360Z,0.00
2018-10-07T18:29:04.344Z,0.00